Buna, Texas
Current Conditions -  °F | °C
As of 3:55 PM on Thursday 27 Nov 2014 (Local Time) from KORG Reporting Station
Clear Clear  
Wind Chill: 64°   Ceiling: Unl
Heat Index: 64°   Visibility: 10mi
Dew Point: 31°   Wind: 6mph
Humidity: 29%   Direction: 350°N
Pressure: 30.43"   Gusts: NA
Location:  30.43°N, 93.97°W
Report Text: KORG 272155Z AUTO 35005KT 10SM CLR 18/M01 A3043 RMK AO2 T01751008
Loading
Personal Weather Stations






























Interactive Weather Map New forecast layout! Learn more

10-Day Weather Forecast

Advertisements
Track Severe Weather on mobile